createdAt,value
2022-10-08T00:02:15.079Z,0.40
2022-10-08T00:04:42.018Z,0.73
2022-10-08T00:07:08.754Z,1.00
2022-10-08T00:09:35.536Z,0.40
2022-10-08T00:12:02.203Z,0.63
2022-10-08T00:14:29.062Z,0.90
2022-10-08T00:16:55.720Z,0.80
2022-10-08T00:19:22.476Z,0.93
2022-10-08T00:21:53.225Z,0.90
2022-10-08T00:24:21.324Z,0.90
2022-10-08T00:26:48.129Z,0.57
2022-10-08T00:29:35.459Z,0.80
2022-10-08T00:32:02.469Z,0.77
2022-10-08T00:34:31.015Z,0.60
2022-10-08T00:37:00.956Z,1.00
2022-10-08T00:39:27.789Z,0.80
2022-10-08T00:41:56.331Z,0.40
2022-10-08T00:44:51.634Z,0.80
2022-10-08T00:47:48.987Z,1.00
2022-10-08T00:50:34.260Z,0.68
2022-10-08T00:53:10.806Z,1.13
2022-10-08T00:55:43.955Z,0.73
2022-10-08T00:58:24.477Z,0.77
2022-10-08T01:00:51.965Z,0.43
2022-10-08T01:03:18.839Z,0.93
2022-10-08T01:06:09.664Z,1.00
2022-10-08T01:09:19.378Z,1.07
2022-10-08T01:12:15.985Z,1.13
2022-10-08T01:14:57.076Z,0.73
2022-10-08T01:18:01.460Z,0.90
2022-10-08T01:20:52.797Z,1.13
2022-10-08T01:23:28.594Z,0.70
2022-10-08T01:26:08.605Z,1.23
2022-10-08T01:28:43.816Z,0.63
2022-10-08T01:31:46.724Z,1.13
2022-10-08T01:34:23.069Z,0.70
2022-10-08T01:36:53.549Z,0.60
2022-10-08T01:39:39.592Z,1.43
2022-10-08T01:42:09.565Z,0.60
2022-10-08T01:44:51.813Z,0.90
2022-10-08T01:47:23.988Z,0.63
2022-10-08T01:50:00.148Z,0.80
2022-10-08T01:52:31.784Z,0.50
2022-10-08T01:55:03.433Z,0.93
2022-10-08T01:57:33.702Z,1.20
2022-10-08T02:00:05.846Z,0.77
2022-10-08T02:02:39.298Z,0.70
2022-10-08T02:05:06.853Z,1.10
2022-10-08T02:07:37.848Z,0.50
2022-10-08T02:10:17.446Z,0.70
2022-10-08T02:12:45.243Z,0.93
2022-10-08T02:15:16.276Z,0.80
2022-10-08T02:17:50.495Z,0.63
2022-10-08T02:20:37.377Z,0.67
2022-10-08T02:23:29.865Z,0.87
2022-10-08T02:26:02.025Z,0.50
2022-10-08T02:28:38.114Z,0.90
2022-10-08T02:31:30.167Z,0.70
2022-10-08T02:34:08.914Z,0.60
2022-10-08T02:36:38.753Z,0.80
2022-10-08T02:39:06.454Z,0.90
2022-10-08T02:41:38.438Z,1.13
2022-10-08T02:44:09.136Z,0.70
2022-10-08T02:46:40.509Z,1.30
2022-10-08T02:49:15.769Z,0.60
2022-10-08T02:52:03.157Z,0.80
2022-10-08T02:54:34.684Z,0.87
2022-10-08T02:57:15.741Z,0.77
2022-10-08T02:59:43.510Z,0.67
2022-10-08T03:02:15.388Z,0.47
2022-10-08T03:04:48.077Z,0.87
2022-10-08T03:07:33.672Z,1.07
2022-10-08T03:10:05.569Z,1.53
2022-10-08T03:12:33.234Z,1.10
2022-10-08T03:15:00.718Z,0.67
2022-10-08T03:17:41.380Z,0.60
2022-10-08T03:20:10.949Z,1.10
2022-10-08T03:22:38.442Z,0.93
2022-10-08T03:25:05.856Z,1.10
2022-10-08T03:27:35.167Z,0.90
2022-10-08T03:30:02.560Z,0.90
2022-10-08T03:32:29.390Z,0.67
2022-10-08T03:34:56.341Z,0.80
2022-10-08T03:37:23.066Z,0.77
2022-10-08T03:39:49.960Z,0.80
2022-10-08T03:42:16.724Z,0.57
2022-10-08T03:44:43.565Z,0.70
2022-10-08T03:47:10.325Z,0.60
2022-10-08T03:49:37.133Z,0.40
2022-10-08T03:52:04.022Z,0.77
2022-10-08T03:54:30.951Z,0.80
2022-10-08T03:56:57.645Z,0.70
2022-10-08T03:59:24.481Z,0.83
2022-10-08T04:01:51.262Z,0.70
2022-10-08T04:07:02.108Z,0.60
2022-10-08T04:09:28.815Z,0.73
2022-10-08T04:11:55.554Z,0.87
2022-10-08T04:14:22.280Z,0.77
2022-10-08T04:16:49.373Z,0.60
2022-10-08T04:19:17.894Z,0.60
2022-10-08T04:21:44.677Z,0.50
2022-10-08T04:24:11.534Z,0.43
2022-10-08T04:26:38.317Z,1.03
2022-10-08T04:31:49.318Z,0.60
2022-10-08T04:37:00.153Z,0.30
2022-10-08T04:39:26.905Z,1.00
2022-10-08T04:42:11.893Z,0.30
2022-10-08T04:44:57.130Z,0.70
2022-10-08T04:47:23.884Z,0.70
2022-10-08T04:49:50.616Z,0.70
2022-10-08T04:52:18.918Z,0.73
2022-10-08T04:54:45.589Z,0.63
2022-10-08T04:57:12.485Z,0.90
2022-10-08T04:59:53.722Z,0.80
2022-10-08T05:02:26.041Z,0.50
2022-10-08T05:04:52.881Z,0.50
2022-10-08T05:07:19.552Z,0.70
2022-10-08T05:09:46.283Z,0.93
2022-10-08T05:12:12.982Z,0.80
2022-10-08T05:14:39.727Z,1.33
2022-10-08T05:17:06.464Z,0.63
2022-10-08T05:19:51.688Z,0.80
2022-10-08T05:22:18.637Z,0.77
2022-10-08T05:24:45.432Z,0.70
2022-10-08T05:27:12.157Z,0.80
2022-10-08T05:29:38.907Z,0.70
2022-10-08T05:32:05.698Z,1.00
2022-10-08T05:34:32.388Z,0.60
2022-10-08T05:36:59.125Z,0.77
2022-10-08T05:39:25.973Z,0.80
2022-10-08T05:41:54.103Z,0.80
2022-10-08T05:44:20.905Z,0.70
2022-10-08T05:46:47.652Z,0.80
2022-10-08T05:49:22.697Z,1.00
2022-10-08T05:51:50.346Z,0.60
2022-10-08T05:54:18.789Z,0.63
2022-10-08T05:56:45.761Z,0.53
2022-10-08T05:59:17.080Z,0.93
2022-10-08T06:01:44.260Z,0.60
2022-10-08T06:04:11.499Z,0.70
2022-10-08T06:06:40.149Z,0.53
2022-10-08T06:09:08.521Z,0.80
2022-10-08T06:11:36.973Z,0.47
2022-10-08T06:14:06.107Z,1.13
2022-10-08T06:16:34.022Z,0.83
2022-10-08T06:19:03.156Z,0.70
2022-10-08T06:21:31.169Z,0.70
2022-10-08T06:24:03.775Z,0.87
2022-10-08T06:26:36.620Z,0.50
2022-10-08T06:29:05.777Z,0.67
2022-10-08T06:31:36.834Z,0.63
2022-10-08T06:34:04.765Z,0.57
2022-10-08T06:36:33.513Z,1.00
2022-10-08T06:39:02.546Z,1.13
2022-10-08T06:41:35.598Z,0.83
2022-10-08T06:44:04.758Z,0.97
2022-10-08T06:46:32.646Z,0.40
2022-10-08T06:49:00.812Z,0.60
2022-10-08T06:51:28.225Z,0.90
2022-10-08T06:53:59.419Z,0.97
2022-10-08T06:56:29.090Z,0.40
2022-10-08T06:58:55.920Z,0.70
2022-10-08T07:01:27.945Z,0.70
2022-10-08T07:04:00.614Z,0.50
2022-10-08T07:06:28.001Z,0.70
2022-10-08T07:08:56.583Z,0.80
2022-10-08T07:11:24.956Z,0.90
2022-10-08T07:13:51.889Z,0.55
2022-10-08T07:16:21.465Z,0.60
2022-10-08T07:18:51.578Z,0.80
2022-10-08T07:21:38.825Z,0.60
2022-10-08T07:24:05.738Z,0.70
2022-10-08T07:26:34.955Z,1.13
2022-10-08T07:29:05.312Z,1.20
2022-10-08T07:31:34.873Z,0.93
2022-10-08T07:34:04.380Z,0.53
2022-10-08T07:36:32.325Z,0.80
2022-10-08T07:39:08.340Z,1.00
2022-10-08T07:41:35.769Z,1.40
2022-10-08T07:44:03.108Z,0.70
2022-10-08T07:46:32.030Z,0.90
2022-10-08T07:48:59.486Z,0.83
2022-10-08T07:51:27.500Z,1.10
2022-10-08T07:53:56.785Z,1.10
2022-10-08T07:56:27.241Z,1.27
2022-10-08T07:58:54.017Z,0.85
2022-10-08T08:01:28.494Z,0.75
2022-10-08T08:04:02.094Z,0.80
2022-10-08T08:06:48.373Z,0.87
2022-10-08T08:09:16.413Z,1.27
2022-10-08T08:11:43.374Z,0.98
2022-10-08T08:14:10.642Z,1.27
2022-10-08T08:16:38.571Z,1.02
2022-10-08T08:19:05.651Z,0.60
2022-10-08T08:21:35.482Z,0.85
2022-10-08T08:24:08.162Z,1.00
2022-10-08T08:26:37.972Z,0.85
2022-10-08T08:29:16.560Z,1.07
2022-10-08T08:31:48.862Z,1.13
2022-10-08T08:34:34.192Z,0.63
2022-10-08T08:37:00.955Z,0.77
2022-10-08T08:39:46.220Z,0.80
2022-10-08T08:42:19.076Z,0.50
2022-10-08T08:44:57.291Z,0.60
2022-10-08T08:47:29.823Z,0.57
2022-10-08T08:50:19.222Z,0.82
2022-10-08T08:52:46.292Z,1.00
2022-10-08T08:55:15.994Z,0.65
2022-10-08T08:58:00.864Z,0.63
2022-10-08T09:00:35.356Z,0.90
2022-10-08T09:03:06.249Z,0.98
2022-10-08T09:05:39.548Z,0.60
2022-10-08T09:08:23.895Z,1.17
2022-10-08T09:10:56.617Z,0.60
2022-10-08T09:13:57.584Z,0.50
2022-10-08T09:16:27.680Z,1.15
2022-10-08T09:18:54.828Z,1.08
2022-10-08T09:21:21.975Z,2.10
2022-10-08T09:23:48.935Z,1.83
2022-10-08T09:26:22.828Z,1.17
2022-10-08T09:28:53.073Z,1.10
2022-10-08T09:31:22.993Z,0.57
2022-10-08T09:34:13.264Z,0.80
2022-10-08T09:36:54.529Z,0.82
2022-10-08T09:39:21.269Z,0.65
2022-10-08T09:42:06.778Z,0.68
2022-10-08T09:44:56.754Z,0.52
2022-10-08T09:47:24.948Z,0.40
2022-10-08T09:50:19.280Z,0.70
2022-10-08T09:52:49.889Z,1.23
2022-10-08T09:55:35.615Z,0.90
2022-10-08T09:58:04.148Z,0.93
2022-10-08T10:00:39.577Z,0.55
2022-10-08T10:03:16.584Z,0.70
2022-10-08T10:05:44.057Z,0.40
2022-10-08T10:08:41.584Z,0.77
2022-10-08T10:11:26.454Z,0.60
2022-10-08T10:13:56.197Z,0.30
2022-10-08T10:16:28.740Z,0.60
2022-10-08T10:19:21.198Z,0.30
2022-10-08T10:21:59.631Z,0.30
2022-10-08T10:24:52.741Z,0.40
2022-10-08T10:27:28.868Z,0.45
2022-10-08T10:30:19.677Z,0.30
2022-10-08T10:33:04.765Z,0.70
2022-10-08T10:35:32.832Z,0.55
2022-10-08T10:38:38.451Z,0.70
2022-10-08T10:41:10.430Z,0.30
2022-10-08T10:43:43.058Z,0.22
2022-10-08T10:46:44.565Z,0.50
2022-10-08T10:49:35.426Z,0.28
2022-10-08T10:52:10.803Z,0.20
2022-10-08T10:54:47.213Z,0.10
2022-10-08T10:57:22.657Z,0.22
2022-10-08T11:00:09.512Z,0.28
2022-10-08T11:05:35.428Z,0.20
2022-10-08T11:08:25.489Z,0.40
2022-10-08T11:11:32.888Z,0.15
2022-10-08T11:14:17.345Z,0.45
2022-10-08T11:17:08.767Z,0.20
2022-10-08T11:19:39.202Z,0.10
2022-10-08T11:22:29.175Z,0.20
2022-10-08T11:25:04.787Z,0.30
2022-10-08T11:27:57.217Z,0.32
2022-10-08T11:30:42.139Z,0.30
2022-10-08T11:33:27.715Z,0.20
2022-10-08T11:36:13.637Z,0.10
2022-10-08T11:38:49.628Z,0.20
2022-10-08T11:41:24.351Z,0.70
2022-10-08T11:43:55.762Z,0.77
2022-10-08T11:46:31.693Z,0.40
2022-10-08T11:49:01.231Z,0.30
2022-10-08T11:51:33.900Z,0.40
2022-10-08T11:54:13.092Z,0.63
2022-10-08T11:56:49.633Z,0.40
2022-10-08T11:59:34.398Z,0.60
2022-10-08T12:02:18.594Z,0.35
2022-10-08T12:04:48.236Z,0.22
2022-10-08T12:07:36.420Z,1.02
2022-10-08T12:10:05.934Z,0.43
2022-10-08T12:12:51.106Z,0.40
2022-10-08T12:15:23.755Z,0.38
2022-10-08T12:17:59.769Z,0.40
2022-10-08T12:20:32.873Z,0.43
2022-10-08T12:23:34.389Z,0.75
2022-10-08T12:26:19.464Z,0.57
2022-10-08T12:28:50.615Z,0.40
2022-10-08T12:31:35.596Z,0.30
2022-10-08T12:34:18.292Z,0.63
2022-10-08T12:37:16.324Z,0.30
2022-10-08T12:39:47.203Z,0.30
2022-10-08T12:42:35.600Z,0.30
2022-10-08T12:45:30.488Z,0.30
2022-10-08T12:48:09.548Z,0.28
2022-10-08T12:51:01.908Z,0.28
2022-10-08T12:53:29.280Z,0.10
2022-10-08T12:55:58.349Z,0.30
2022-10-08T12:58:30.043Z,0.13
2022-10-08T13:01:04.263Z,0.10
2022-10-08T13:03:31.528Z,0.20
2022-10-08T13:05:58.298Z,0.15
2022-10-08T13:08:31.098Z,0.20
2022-10-08T13:11:03.708Z,0.20
2022-10-08T13:13:39.451Z,0.30
2022-10-08T13:16:26.706Z,0.25
2022-10-08T13:18:58.512Z,0.30
2022-10-08T13:21:31.179Z,0.20
2022-10-08T13:23:59.117Z,0.30
2022-10-08T13:26:56.453Z,0.10
2022-10-08T13:30:00.190Z,0.30
2022-10-08T13:32:35.336Z,0.30
2022-10-08T13:35:04.283Z,0.28
2022-10-08T13:37:37.326Z,0.10
2022-10-08T13:40:23.985Z,0.43
2022-10-08T13:42:53.410Z,0.30
2022-10-08T13:45:25.833Z,0.40
2022-10-08T13:47:53.797Z,0.60
2022-10-08T13:50:22.264Z,0.40
2022-10-08T13:52:54.804Z,0.40
2022-10-08T13:55:27.773Z,0.40
2022-10-08T13:57:55.824Z,0.60
2022-10-08T14:00:23.852Z,0.20
2022-10-08T14:02:51.812Z,0.20
2022-10-08T14:05:19.784Z,0.03
2022-10-08T14:07:50.460Z,0.22
2022-10-08T14:10:19.010Z,0.10
2022-10-08T14:12:45.946Z,0.32
2022-10-08T14:15:14.673Z,0.30
2022-10-08T14:17:41.452Z,0.20
2022-10-08T14:20:09.316Z,0.20
2022-10-08T14:22:39.199Z,0.10
2022-10-08T14:25:19.524Z,0.15
2022-10-08T14:27:46.783Z,0.20
2022-10-08T14:30:14.986Z,0.30
2022-10-08T14:32:42.138Z,0.32
2022-10-08T14:35:09.716Z,0.10
2022-10-08T14:37:37.229Z,0.20
2022-10-08T14:40:06.681Z,0.10
2022-10-08T14:42:33.536Z,0.20
2022-10-08T14:45:19.100Z,0.10
2022-10-08T14:47:46.191Z,0.13
2022-10-08T14:50:13.598Z,0.20
2022-10-08T14:52:44.253Z,0.20
2022-10-08T14:55:12.457Z,0.30
2022-10-08T14:57:39.233Z,0.20
2022-10-08T15:00:07.096Z,0.68
2022-10-08T15:02:36.493Z,3.10
2022-10-08T15:05:03.325Z,1.10
2022-10-08T15:07:30.791Z,0.80
2022-10-08T15:09:57.675Z,0.52
2022-10-08T15:12:24.465Z,0.30
2022-10-08T15:14:51.225Z,0.50
2022-10-08T15:17:17.961Z,0.22
2022-10-08T15:19:44.765Z,0.50
2022-10-08T15:22:11.620Z,0.50
2022-10-08T15:24:38.389Z,0.20
2022-10-08T15:27:05.179Z,0.25
2022-10-08T15:29:31.871Z,0.20
2022-10-08T15:31:58.659Z,0.40
2022-10-08T15:34:25.409Z,0.20
2022-10-08T15:36:55.597Z,0.30
2022-10-08T15:39:41.188Z,0.30
2022-10-08T15:42:26.900Z,0.32
2022-10-08T15:44:55.217Z,0.22
2022-10-08T15:47:22.095Z,0.40
2022-10-08T15:49:48.896Z,0.38
2022-10-08T15:52:18.337Z,0.70
2022-10-08T15:54:45.771Z,0.45
2022-10-08T15:57:14.729Z,0.50
2022-10-08T15:59:41.774Z,0.50
2022-10-08T16:02:15.576Z,0.52
2022-10-08T16:04:43.891Z,0.47
2022-10-08T16:07:10.633Z,0.73
2022-10-08T16:09:56.189Z,0.73
2022-10-08T16:12:41.387Z,0.65
2022-10-08T16:15:26.885Z,0.75
2022-10-08T16:17:53.663Z,0.70
2022-10-08T16:20:20.389Z,0.80
2022-10-08T16:22:47.344Z,1.20
2022-10-08T16:25:34.853Z,0.52
2022-10-08T16:28:01.790Z,0.60
2022-10-08T16:30:28.601Z,0.85
2022-10-08T16:32:55.380Z,0.50
2022-10-08T16:35:22.208Z,1.38
2022-10-08T16:37:49.013Z,0.60
2022-10-08T16:43:00.433Z,0.70
2022-10-08T16:45:45.889Z,0.50
2022-10-08T16:48:12.764Z,1.00
2022-10-08T16:50:41.210Z,1.35
2022-10-08T16:53:10.962Z,1.42
2022-10-08T16:55:38.790Z,1.98
2022-10-08T16:58:06.233Z,1.48
2022-10-08T17:00:37.029Z,1.42
2022-10-08T17:03:04.431Z,1.13
2022-10-08T17:05:31.189Z,0.85
2022-10-08T17:07:57.889Z,0.98
2022-10-08T17:10:24.720Z,0.80
2022-10-08T17:12:52.241Z,0.80
2022-10-08T17:15:18.960Z,1.10
2022-10-08T17:17:46.330Z,1.23
2022-10-08T17:20:13.067Z,1.70
2022-10-08T17:22:40.939Z,0.93
2022-10-08T17:25:08.186Z,1.48
2022-10-08T17:27:35.019Z,1.10
2022-10-08T17:30:01.866Z,0.90
2022-10-08T17:32:28.754Z,1.65
2022-10-08T17:34:55.529Z,1.05
2022-10-08T17:37:22.240Z,1.20
2022-10-08T17:39:48.985Z,2.15
2022-10-08T17:42:15.792Z,1.25
2022-10-08T17:44:42.580Z,1.00
2022-10-08T17:47:09.574Z,1.42
2022-10-08T17:49:54.884Z,1.27
2022-10-08T17:52:21.718Z,3.78
2022-10-08T17:54:48.399Z,2.35
2022-10-08T17:57:15.204Z,2.28
2022-10-08T17:59:43.566Z,2.55
2022-10-08T18:02:10.429Z,2.83
2022-10-08T18:04:37.346Z,3.00
2022-10-08T18:07:04.136Z,2.47
2022-10-08T18:09:30.926Z,2.53
2022-10-08T18:11:57.646Z,3.30
2022-10-08T18:14:24.313Z,3.40
2022-10-08T18:16:51.141Z,2.90
2022-10-08T18:19:18.507Z,2.28
2022-10-08T18:21:45.539Z,2.42
2022-10-08T18:24:12.293Z,2.20
2022-10-08T18:26:39.204Z,1.98
2022-10-08T18:29:11.664Z,2.20
2022-10-08T18:31:40.669Z,2.10
2022-10-08T18:34:11.823Z,1.58
2022-10-08T18:36:39.437Z,1.77
2022-10-08T18:39:08.527Z,2.38
2022-10-08T18:41:38.758Z,2.08
2022-10-08T18:44:07.586Z,2.05
2022-10-08T18:46:53.214Z,2.53
2022-10-08T18:49:40.505Z,2.47
2022-10-08T18:52:08.135Z,1.77
2022-10-08T18:54:34.964Z,1.50
2022-10-08T18:57:01.649Z,1.52
2022-10-08T18:59:29.352Z,1.45
2022-10-08T19:01:59.426Z,1.63
2022-10-08T19:04:26.909Z,1.70
2022-10-08T19:06:53.769Z,1.73
2022-10-08T19:09:21.240Z,1.25
2022-10-08T19:11:50.247Z,1.67
2022-10-08T19:14:19.747Z,0.80
2022-10-08T19:16:47.279Z,2.00
2022-10-08T19:19:19.975Z,1.98
2022-10-08T19:21:48.329Z,2.10
2022-10-08T19:24:20.990Z,3.22
2022-10-08T19:27:07.807Z,2.67
2022-10-08T19:29:53.621Z,2.15
2022-10-08T19:32:20.420Z,1.83
2022-10-08T19:34:47.283Z,1.55
2022-10-08T19:37:14.056Z,1.70
2022-10-08T19:39:44.013Z,1.45
2022-10-08T19:42:11.036Z,0.90
2022-10-08T19:44:57.058Z,0.93
2022-10-08T19:47:23.841Z,1.40
2022-10-08T19:50:10.271Z,1.33
2022-10-08T19:52:37.103Z,1.05
2022-10-08T19:55:04.032Z,0.80
2022-10-08T19:57:30.854Z,1.17
2022-10-08T19:59:58.368Z,0.75
2022-10-08T20:02:25.729Z,0.65
2022-10-08T20:04:52.498Z,0.75
2022-10-08T20:07:19.836Z,0.50
2022-10-08T20:09:47.017Z,0.82
2022-10-08T20:12:13.777Z,0.80
2022-10-08T20:14:59.237Z,0.80
2022-10-08T20:17:26.099Z,0.90
2022-10-08T20:19:53.069Z,1.08
2022-10-08T20:22:20.120Z,0.68
2022-10-08T20:24:46.934Z,1.05
2022-10-08T20:27:13.721Z,0.98
2022-10-08T20:29:59.551Z,1.02
2022-10-08T20:32:26.389Z,1.05
2022-10-08T20:34:53.494Z,1.08
2022-10-08T20:37:20.277Z,1.02
2022-10-08T20:39:47.444Z,0.98
2022-10-08T20:42:14.286Z,0.90
2022-10-08T20:44:41.244Z,0.85
2022-10-08T20:47:07.997Z,1.17
2022-10-08T20:49:36.216Z,1.30
2022-10-08T20:52:04.238Z,1.67
2022-10-08T20:54:31.070Z,1.00
2022-10-08T20:56:57.859Z,1.25
2022-10-08T20:59:25.418Z,1.45
2022-10-08T21:01:52.581Z,1.27
2022-10-08T21:04:20.750Z,1.70
2022-10-08T21:06:50.469Z,1.45
2022-10-08T21:09:19.804Z,0.85
2022-10-08T21:11:47.106Z,1.10
2022-10-08T21:14:21.425Z,1.38
2022-10-08T21:16:48.595Z,0.93
2022-10-08T21:19:21.956Z,1.25
2022-10-08T21:22:07.885Z,0.95
2022-10-08T21:24:36.675Z,1.45
2022-10-08T21:27:03.447Z,1.00
2022-10-08T21:29:30.284Z,1.23
2022-10-08T21:31:57.056Z,1.08
2022-10-08T21:34:23.885Z,0.77
2022-10-08T21:36:50.736Z,1.85
2022-10-08T21:39:17.753Z,1.05
2022-10-08T21:41:44.924Z,1.42
2022-10-08T21:44:12.260Z,1.50
2022-10-08T21:46:41.681Z,1.50
2022-10-08T21:49:12.995Z,1.80
2022-10-08T21:51:58.424Z,1.27
2022-10-08T21:54:25.145Z,1.20
2022-10-08T21:56:51.872Z,1.20
2022-10-08T21:59:18.661Z,1.10
2022-10-08T22:04:34.664Z,2.03
2022-10-08T22:07:02.532Z,1.45
2022-10-08T22:09:31.788Z,0.73
2022-10-08T22:11:59.449Z,1.42
2022-10-08T22:14:27.052Z,1.40
2022-10-08T22:16:54.446Z,1.55
2022-10-08T22:19:21.455Z,1.45
2022-10-08T22:21:48.427Z,0.95
2022-10-08T22:24:15.315Z,1.02
2022-10-08T22:26:44.694Z,1.33
2022-10-08T22:29:11.657Z,0.82
2022-10-08T22:31:39.023Z,1.58
2022-10-08T22:34:06.211Z,1.15
2022-10-08T22:36:37.088Z,1.67
2022-10-08T22:39:03.999Z,1.35
2022-10-08T22:44:16.606Z,1.45
2022-10-08T22:46:43.315Z,1.23
2022-10-08T22:49:12.390Z,0.80
2022-10-08T22:51:40.176Z,1.23
2022-10-08T22:54:07.687Z,1.50
2022-10-08T22:56:34.569Z,0.73
2022-10-08T22:59:19.751Z,1.10
2022-10-08T23:01:46.575Z,1.38
2022-10-08T23:04:13.341Z,0.63
2022-10-08T23:06:40.090Z,1.05
2022-10-08T23:09:11.380Z,1.27
2022-10-08T23:11:38.571Z,1.25
2022-10-08T23:14:06.046Z,0.77
2022-10-08T23:16:51.154Z,0.90
2022-10-08T23:19:18.005Z,0.70
2022-10-08T23:21:44.692Z,1.20
2022-10-08T23:24:11.496Z,0.80
2022-10-08T23:26:38.285Z,1.02
2022-10-08T23:29:05.354Z,0.52
2022-10-08T23:31:35.046Z,0.40
2022-10-08T23:34:03.013Z,0.60
2022-10-08T23:36:36.542Z,0.70
2022-10-08T23:39:04.285Z,1.33
2022-10-08T23:41:31.107Z,1.52
2022-10-08T23:44:16.090Z,0.98
2022-10-08T23:47:01.740Z,0.90
2022-10-08T23:49:28.560Z,1.38
2022-10-08T23:51:55.396Z,1.13
2022-10-08T23:54:22.261Z,1.45
2022-10-08T23:56:49.047Z,1.85
2022-10-08T23:59:15.801Z,1.33
